Latest Weather Observations for Merimbula

IDN60801

Issued at 12:32 am EDT Wednesday 29 March 2017 (issued every 30 minutes, with the page automatically refreshed every 10 minutes)

About weather observations | Map of weather stations | Latest weather observations for NSW | Other Formats
Station Details ID: 069147 Name: MERIMBULA AIRPORT AWS Lat: -36.91 Lon: 149.90 Height: 1.5 m
Data from the previous 72 hours. | See also: Recent months at Merimbula
Date/Time
EDT
Temp
°C
App
Temp
°C
Dew
Point
°C
Rel
Hum
%
Delta-T
°C
Wind Press
QNH
hPa
Press
MSL
hPa
Rain since
9am
mm
Dir  Spd
km/h
Gust
km/h
Spd
kts
Gust
kts
29/12:30am 18.5 18.1 13.1 71 3.0 NW 7 9 4 5 1013.1 1013.1 0.2
29/12:00am 18.3 17.6 13.2 72 2.9 NW 9 13 5 7 1013.1 1013.1 0.2
 
Date/Time
EDT
Temp
°C
App
Temp
°C
Dew
Point
°C
Rel
Hum
%
Delta-T
°C
Wind Press
QNH
hPa
Press
MSL
hPa
Rain since
9am
mm
Dir  Spd
km/h
Gust
km/h
Spd
kts
Gust
kts
28/11:30pm 18.2 17.3 12.6 70 3.1 NNW 9 11 5 6 1013.3 1013.3 0.2
28/11:00pm 18.7 18.3 13.1 70 3.2 NW 7 13 4 7 1013.6 1013.6 0.2
28/10:30pm 18.6 17.9 13.2 71 3.0 NW 9 11 5 6 1013.5 1013.5 0.2
28/10:00pm 18.8 18.7 13.2 70 3.2 NW 6 11 3 6 1013.6 1013.6 0.2
28/09:30pm 19.3 18.8 12.8 66 3.7 NNW 7 11 4 6 1013.6 1013.6 0.2
28/09:00pm 19.4 18.2 11.7 61 4.2 N 9 13 5 7 1013.6 1013.6 0.2
28/08:30pm 19.2 17.9 11.3 60 4.3 N 9 13 5 7 1013.3 1013.3 0.2
28/08:00pm 19.4 18.1 11.2 59 4.5 N 9 13 5 7 1013.2 1013.2 0.2
28/07:30pm 19.5 18.7 11.0 58 4.6 NNE 6 9 3 5 1013.1 1013.1 0.2
28/07:00pm 19.7 18.7 10.9 57 4.8 N 7 11 4 6 1013.2 1013.2 0.2
28/06:30pm 19.9 18.8 10.6 55 5.0 N 7 11 4 6 1013.1 1013.1 0.2
28/06:00pm 20.2 19.1 10.6 54 5.2 NNE 7 11 4 6 1012.9 1012.9 0.2
28/05:30pm 20.3 18.8 10.4 53 5.4 ENE 9 11 5 6 1013.0 1013.0 0.2
28/05:00pm 20.8 19.7 10.6 52 5.6 E 7 11 4 6 1012.9 1012.9 0.2
28/04:30pm 21.3 20.0 11.1 52 5.6 E 9 13 5 7 1012.9 1012.9 0.2
28/04:00pm 21.2 19.7 10.4 50 5.9 E 9 17 5 9 1013.0 1013.0 0.2
28/03:30pm 21.3 19.7 10.2 49 6.0 E 9 13 5 7 1013.3 1013.3 0.2
28/03:00pm 21.3 19.6 9.9 48 6.1 E 9 13 5 7 1013.6 1013.6 0.2
28/02:30pm 21.2 19.7 10.4 50 5.9 E 9 15 5 8 1013.8 1013.8 0.2
28/02:00pm 21.1 19.0 9.7 48 6.1 ENE 11 15 6 8 1014.0 1014.0 0.2
28/01:30pm 21.0 18.6 9.9 49 6.0 E 13 17 7 9 1014.2 1014.2 0.2
28/01:00pm 22.0 19.4 9.2 44 6.8 E 13 19 7 10 1014.4 1014.4 0.2
28/12:30pm 22.5 20.3 10.9 48 6.4 ENE 13 17 7 9 1014.6 1014.6 0.2
28/12:00pm 22.0 20.8 11.7 52 5.8 ENE 9 13 5 7 1014.8 1014.8 0.2
28/11:30am 21.4 20.7 13.3 60 4.6 E 9 11 5 6 1015.0 1015.0 0.0
28/11:00am 20.8 21.7 12.8 60 4.5 CALM 0 0 0 0 1015.2 1015.2 0.0
28/10:30am 19.9 20.4 11.7 59 4.5 CALM 0 0 0 0 1015.3 1015.3 0.0
28/10:00am 19.4 19.7 10.9 58 4.6 CALM 0 0 0 0 1015.0 1015.0 0.0
28/09:30am 18.6 19.0 11.4 63 3.9 CALM 0 0 0 0 1014.9 1014.9 0.0
28/09:00am 17.8 17.1 12.0 69 3.2 W 7 9 4 5 1014.7 1014.7 3.6
28/08:30am 16.8 15.8 11.1 69 3.1 W 7 11 4 6 1014.5 1014.5 3.6
28/08:00am 16.3 15.8 12.5 78 2.1 WNW 7 9 4 5 1014.2 1014.2 3.6
28/07:30am 15.9 17.0 13.6 86 1.3 CALM 0 0 0 0 1014.0 1014.0 3.6
28/07:00am 15.6 16.0 12.5 82 1.7 WNW 2 9 1 5 1013.8 1013.8 3.6
28/06:30am 15.6 16.8 13.8 89 1.0 CALM 0 0 0 0 1013.5 1013.5 3.6
28/06:00am 15.5 16.5 13.2 86 1.3 CALM 0 0 0 0 1013.5 1013.5 3.6
28/05:30am 16.1 17.3 13.9 87 1.2 CALM 0 0 0 0 1013.2 1013.2 3.6
28/05:00am 16.4 16.2 13.1 81 1.8 SSE 6 11 3 6 1013.0 1013.0 3.6
28/04:30am 16.1 16.3 13.2 83 1.6 SE 4 11 2 6 1013.2 1013.2 3.6
28/04:00am 16.3 17.8 14.7 90 0.9 CALM 0 0 0 0 1013.1 1013.1 3.6
28/03:30am 16.0 17.3 14.0 88 1.1 CALM 0 0 0 0 1013.2 1013.2 3.6
28/03:00am 16.1 17.3 13.8 86 1.3 CALM 0 0 0 0 1013.3 1013.3 3.6
28/02:30am 16.1 17.3 13.8 86 1.3 CALM 0 0 0 0 1013.3 1013.3 3.6
28/02:00am 16.6 17.0 13.7 83 1.6 SW 4 7 2 4 1013.3 1013.3 3.6
28/01:30am 16.8 16.6 12.9 78 2.2 SW 6 13 3 7 1013.1 1013.1 3.6
28/01:00am 17.0 17.0 14.3 84 1.5 SSE 7 11 4 6 1013.1 1013.1 3.6
28/12:30am 17.2 19.1 15.7 91 0.9 CALM 0 0 0 0 1012.7 1012.7 3.6
28/12:00am 17.1 19.0 15.8 92 0.8 CALM 0 0 0 0 1012.5 1012.5 3.6
 
Date/Time
EDT
Temp
°C
App
Temp
°C
Dew
Point
°C
Rel
Hum
%
Delta-T
°C
Wind Press
QNH
hPa
Press
MSL
hPa
Rain since
9am
mm
Dir  Spd
km/h
Gust
km/h
Spd
kts
Gust
kts
27/11:30pm 17.0 17.7 15.5 91 0.9 WSW 6 9 3 5 1012.1 1012.1 3.6
27/11:00pm 16.7 16.3 15.2 91 0.9 SW 11 15 6 8 1012.3 1012.3 3.6
27/10:30pm 16.8 17.4 15.2 90 0.9 S 6 13 3 7 1012.6 1012.6 3.6
27/10:00pm 17.3 16.7 15.6 90 1.0 SSE 13 20 7 11 1012.6 1012.6 3.6
27/09:30pm 17.5 17.3 15.8 90 1.0 SE 11 17 6 9 1012.2 1012.2 3.6
27/09:09pm 17.7 18.1 16.2 91 0.9 S 9 15 5 8 1013.1 1013.1 3.6
27/09:00pm 17.8 17.0 16.1 90 1.0 SSE 15 20 8 11 1012.5 1012.5 3.6
27/08:47pm 18.1 16.9 16.1 88 1.2 S 17 24 9 13 1013.0 1013.0 2.8
27/08:38pm 18.3 17.6 16.3 88 1.2 S 15 20 8 11 1012.8 1012.8 2.2
27/08:30pm 18.3 18.2 16.1 87 1.3 SSE 11 15 6 8 1012.2 1012.2 2.0
27/08:09pm 19.1 16.7 15.4 79 2.2 SSW 22 39 12 21 1011.4 1011.4 0.6
27/08:00pm 20.8 17.0 14.7 68 3.6 SSW 28 46 15 25 1011.4 1011.4 0.0
27/07:58pm 21.2 17.4 14.6 66 3.9 SSW 28 46 15 25 1011.3 1011.3 0.0
27/07:30pm 23.0 20.4 13.8 56 5.4 SSE 20 32 11 17 1009.7 1009.7 0.0
27/07:00pm 24.6 22.1 18.1 67 4.1 SSE 28 44 15 24 1008.3 1008.3 0.0
27/06:42pm 23.3 24.7 19.5 79 2.4 SSW 11 30 6 16 1007.3 1007.3 0.0
27/06:30pm 23.4 25.4 19.1 77 2.7 ENE 7 11 4 6 1005.1 1005.1 0.0
27/06:00pm 24.3 26.0 19.4 74 3.1 NE 9 17 5 9 1004.6 1004.6 0.0
27/05:30pm 24.9 25.5 19.5 72 3.5 NE 15 24 8 13 1004.4 1004.4 0.0
27/05:00pm 25.7 26.0 19.6 69 3.9 NE 17 24 9 13 1004.5 1004.5 0.0
27/04:30pm 26.4 26.9 20.0 68 4.2 NNE 17 24 9 13 1005.1 1005.1 0.0
27/04:00pm 26.3 26.6 19.7 67 4.3 NE 17 28 9 15 1005.4 1005.4 0.0
27/03:30pm 26.5 26.3 19.4 65 4.6 NE 19 32 10 17 1005.8 1005.8 0.0
27/03:00pm 25.6 25.1 19.0 67 4.2 NE 20 32 11 17 1006.3 1006.3 0.0
27/02:30pm 25.1 24.3 18.5 67 4.2 NE 20 32 11 17 1006.4 1006.4 0.0
27/02:00pm 26.2 25.7 19.1 65 4.6 NE 20 30 11 16 1007.0 1007.0 0.0
27/01:30pm 26.7 26.5 19.3 64 4.8 NE 19 32 10 17 1007.6 1007.6 0.0
27/01:00pm 27.0 26.6 18.8 60 5.3 NE 19 28 10 15 1008.3 1008.3 0.0
27/12:30pm 26.0 25.2 18.4 63 4.8 NE 20 28 11 15 1008.9 1008.9 0.0
27/12:00pm 26.5 26.6 18.4 61 5.2 NE 15 22 8 12 1009.7 1009.7 0.0
27/11:30am 25.9 25.9 18.1 62 4.9 NE 15 20 8 11 1010.2 1010.2 0.0
27/11:00am 25.4 26.3 17.6 62 4.9 NNE 9 13 5 7 1010.8 1010.8 0.0
27/10:30am 23.8 26.4 17.5 68 3.9 CALM 0 0 0 0 1011.3 1011.3 0.0
27/10:00am 23.1 25.9 18.0 73 3.2 CALM 0 0 0 0 1012.0 1012.0 0.0
27/09:30am 20.3 22.8 17.3 83 1.8 CALM 0 0 0 0 1012.4 1012.4 0.0
27/09:00am 18.6 21.1 17.3 92 0.8 CALM 0 0 0 0 1012.6 1012.6 0.0
27/08:30am 16.5 18.5 15.9 96 0.4 CALM 0 0 0 0 1012.7 1012.7 0.0
27/08:00am 15.4 17.0 14.9 97 0.3 CALM 0 0 0 0 1013.0 1013.0 0.0
27/07:30am 14.5 15.8 14.0 97 0.3 CALM 0 0 0 0 1012.9 1012.9 0.0
27/07:00am 14.1 15.2 13.5 96 0.3 CALM 0 7 0 4 1012.6 1012.6 0.0
27/06:30am 14.2 14.6 13.6 96 0.3 SSW 4 9 2 5 1012.7 1012.7 0.0
27/06:00am 14.3 14.7 13.7 96 0.3 SSW 4 9 2 5 1012.7 1012.7 0.0
27/05:30am 14.7 14.9 14.1 96 0.3 SW 6 9 3 5 1012.8 1012.8 0.0
27/05:00am 14.5 15.7 13.9 96 0.3 CALM 0 0 0 0 1012.9 1012.9 0.0
27/04:30am 14.3 15.4 13.5 95 0.4 CALM 0 0 0 0 1013.1 1013.1 0.0
27/04:00am 14.8 16.1 14.2 96 0.3 CALM 0 0 0 0 1013.4 1013.4 0.0
27/03:54am 14.7 16.0 14.1 96 0.3 CALM 0 0 0 0 1013.4 1013.4 0.0
27/03:41am 14.5 15.7 13.7 95 0.4 CALM 0 0 0 0 1013.4 1013.4 0.0
27/03:35am 14.7 15.9 13.9 95 0.4 CALM 0 0 0 0 1013.6 1013.6 0.0
27/03:30am 14.8 16.1 14.0 95 0.4 CALM 0 0 0 0 1013.7 1013.7 0.0
27/03:16am 15.0 16.3 14.2 95 0.5 CALM 0 0 0 0 1013.9 1013.9 0.0
27/03:06am 14.8 16.1 14.0 95 0.4 CALM 0 0 0 0 1014.1 1014.1 0.0
27/03:00am 15.0 16.3 14.2 95 0.5 CALM 0 0 0 0 1014.1 1014.1 0.0
27/02:47am 15.1 16.5 14.3 95 0.5 CALM 0 0 0 0 1014.3 1014.3 0.0
27/02:30am 15.3 16.7 14.5 95 0.5 CALM 0 0 0 0 1014.4 1014.4 0.0
27/02:00am 15.6 17.2 14.8 95 0.5 CALM 0 0 0 0 1014.8 1014.8 0.0
27/01:30am 15.6 17.1 14.6 94 0.6 CALM 0 0 0 0 1015.1 1015.1 0.0
27/01:00am 15.8 17.3 14.7 93 0.6 CALM 0 0 0 0 1015.3 1015.3 0.0
27/12:30am 16.3 18.0 15.3 94 0.6 CALM 0 0 0 0 1015.7 1015.7 0.0
27/12:00am 16.6 18.4 15.6 94 0.6 CALM 0 0 0 0 1015.9 1015.9 0.0
 
Date/Time
EDT
Temp
°C
App
Temp
°C
Dew
Point
°C
Rel
Hum
%
Delta-T
°C
Wind Press
QNH
hPa
Press
MSL
hPa
Rain since
9am
mm
Dir  Spd
km/h
Gust
km/h
Spd
kts
Gust
kts
26/11:30pm 16.8 18.7 15.7 93 0.6 CALM 0 0 0 0 1016.0 1016.0 0.0
26/11:00pm 16.9 18.8 15.8 93 0.6 CALM 0 0 0 0 1016.1 1016.1 0.0
26/10:30pm 17.3 19.3 16.0 92 0.8 CALM 0 0 0 0 1016.4 1016.4 0.0
26/10:00pm 18.0 20.4 16.9 93 0.7 CALM 0 0 0 0 1016.5 1016.5 0.0
26/09:30pm 18.3 20.6 16.8 91 0.9 CALM 0 0 0 0 1016.3 1016.3 0.0
26/09:00pm 18.6 21.0 16.9 90 1.0 CALM 0 0 0 0 1016.1 1016.1 0.0
26/08:30pm 19.1 21.7 17.6 91 0.9 CALM 0 0 0 0 1015.9 1015.9 0.0
26/08:09pm 19.0 21.4 17.1 89 1.2 CALM 0 0 0 0 1015.6 1015.6 0.0
26/08:00pm 19.0 21.4 17.0 88 1.2 CALM 0 0 0 0 1015.5 1015.5 0.0
26/07:41pm 19.3 21.6 16.7 85 1.6 CALM 0 0 0 0 1015.2 1015.2 0.0
26/07:30pm 19.7 22.0 16.7 83 1.8 CALM 0 0 0 0 1015.2 1015.2 0.0
26/07:00pm 20.9 23.5 17.5 81 2.1 CALM 0 0 0 0 1014.8 1014.8 0.0
26/06:30pm 22.5 24.6 18.1 76 2.7 ESE 4 9 2 5 1014.6 1014.6 0.0
26/06:00pm 22.8 25.5 17.7 73 3.2 CALM 0 0 0 0 1014.5 1014.5 0.0
26/05:30pm 23.7 26.5 17.9 70 3.6 CALM 0 6 0 3 1014.3 1014.3 0.0
26/05:00pm 23.8 24.8 17.8 69 3.7 ESE 9 13 5 7 1014.2 1014.2 0.0
26/04:30pm 24.0 25.4 17.7 68 3.9 E 7 11 4 6 1014.2 1014.2 0.0
26/04:00pm 24.2 25.9 18.6 71 3.5 E 7 13 4 7 1014.1 1014.1 0.0
26/03:30pm 24.2 25.6 17.9 68 3.9 E 7 11 4 6 1014.3 1014.3 0.0
26/03:00pm 24.5 25.1 17.7 66 4.2 E 11 15 6 8 1014.5 1014.5 0.0
26/02:30pm 24.2 24.8 17.7 67 4.1 E 11 17 6 9 1014.7 1014.7 0.0
26/02:00pm 24.2 24.9 17.0 64 4.4 E 9 15 5 8 1015.0 1015.0 0.0
26/01:30pm 24.1 25.0 17.6 67 4.0 E 9 13 5 7 1015.2 1015.2 0.0
26/01:00pm 23.5 23.7 16.8 66 4.1 ESE 11 15 6 8 1015.3 1015.3 0.0
26/12:30pm 23.8 24.2 17.3 67 4.0 E 11 17 6 9 1015.5 1015.5 0.0
26/12:00pm 23.9 24.3 18.1 70 3.6 ESE 13 17 7 9 1015.7 1015.7 0.0
26/11:30am 23.5 25.9 17.0 67 4.0 CALM 0 0 0 0 1015.9 1015.9 0.0
26/11:00am 23.0 25.5 17.2 70 3.6 CALM 0 0 0 0 1015.9 1015.9 0.0
26/10:30am 22.2 24.4 16.5 70 3.5 CALM 0 0 0 0 1015.6 1015.6 0.0
26/10:00am 21.4 23.6 16.6 74 2.9 CALM 0 0 0 0 1015.6 1015.6 0.0
26/09:30am 20.5 23.0 17.3 82 2.0 CALM 0 0 0 0 1015.4 1015.4 0.0
26/09:00am 18.8 21.3 17.3 91 0.9 CALM 0 0 0 0 1015.2 1015.2 0.0
26/08:30am 16.9 19.1 16.6 98 0.2 CALM 0 0 0 0 1014.9 1014.9 0.0
26/08:00am 15.3 15.8 15.0 98 0.2 SSW 6 7 3 4 1014.5 1014.5 0.0
26/07:30am 13.8 13.7 13.3 97 0.3 S 6 7 3 4 1014.2 1014.2 0.0
26/07:00am 13.9 13.6 13.4 97 0.3 SW 7 9 4 5 1013.8 1013.8 0.0
26/06:52am 13.8 14.1 13.3 97 0.3 SW 4 9 2 5 1013.8 1013.8 0.0
26/06:30am 13.2 14.0 12.6 96 0.3 CALM 0 0 0 0 1013.5 1013.5 0.0
26/06:29am 13.2 14.0 12.6 96 0.3 CALM 0 0 0 0 1013.5 1013.5 0.0
26/06:23am 13.4 14.3 12.8 96 0.3 CALM 0 0 0 0 1013.4 1013.4 0.0
26/06:05am 13.5 14.3 12.7 95 0.4 CALM 0 0 0 0 1013.3 1013.3 0.0
26/06:00am 13.5 14.3 12.7 95 0.4 CALM 0 0 0 0 1013.3 1013.3 0.0
26/05:30am 13.9 14.9 13.1 95 0.4 CALM 0 0 0 0 1013.0 1013.0 0.0
26/05:00am 14.1 15.1 13.3 95 0.4 CALM 0 0 0 0 1013.0 1013.0 0.0
26/04:44am 14.5 15.7 13.9 96 0.3 CALM 0 0 0 0 1012.9 1012.9 0.0
26/04:30am 14.3 15.5 13.7 96 0.3 CALM 0 0 0 0 1012.9 1012.9 0.0
26/04:23am 14.6 15.9 14.0 96 0.3 CALM 0 0 0 0 1012.9 1012.9 0.0
26/04:14am 14.7 16.0 14.1 96 0.3 CALM 0 0 0 0 1013.0 1013.0 0.0
26/04:00am 14.5 15.7 13.7 95 0.4 CALM 0 0 0 0 1012.9 1012.9 0.0
26/03:53am 14.5 15.7 13.7 95 0.4 CALM 0 0 0 0 1012.9 1012.9 0.0
26/03:30am 14.6 15.9 14.0 96 0.3 CALM 0 0 0 0 1012.9 1012.9 0.0
26/03:00am 14.7 15.9 13.9 95 0.4 CALM 0 0 0 0 1013.2 1013.2 0.0
26/02:49am 14.6 15.8 13.8 95 0.4 CALM 0 0 0 0 1013.3 1013.3 0.0
26/02:30am 15.2 16.6 14.4 95 0.5 CALM 0 0 0 0 1013.4 1013.4 0.0
26/02:00am 15.1 16.5 14.3 95 0.5 CALM 0 0 0 0 1013.5 1013.5 0.0
26/01:30am 15.4 16.9 14.6 95 0.5 CALM 0 0 0 0 1013.7 1013.7 0.0
26/01:00am 16.0 17.8 15.4 96 0.3 CALM 0 0 0 0 1014.0 1014.0 0.0
26/12:53am 16.1 17.9 15.5 96 0.3 CALM 0 0 0 0 1014.1 1014.1 0.0
26/12:34am 15.4 16.8 14.4 94 0.6 CALM 0 0 0 0 1014.2 1014.2 0.0

Other Formats:

Comma delimited format used in spreadsheet applications
http://www.bom.gov.au/fwo/IDN60801/IDN60801.95929.axf

JavaScript Object Notation format (JSON) in row-major order
http://www.bom.gov.au/fwo/IDN60801/IDN60801.95929.json